sensor_id;sensor_type;location;lat;lon;timestamp;temperature;humidity
9107;DHT22;4589;48.690;8.952;2023-08-21T00:03:25;21.70;99.90
9107;DHT22;4589;48.690;8.952;2023-08-21T00:10:42;21.70;99.90
9107;DHT22;4589;48.690;8.952;2023-08-21T00:20:26;21.60;99.90
9107;DHT22;4589;48.690;8.952;2023-08-21T00:30:10;21.50;99.90
9107;DHT22;4589;48.690;8.952;2023-08-21T00:32:36;21.50;99.90
9107;DHT22;4589;48.690;8.952;2023-08-21T00:35:02;21.50;99.90
9107;DHT22;4589;48.690;8.952;2023-08-21T00:47:11;21.20;99.90
9107;DHT22;4589;48.690;8.952;2023-08-21T00:52:06;21.00;99.90
9107;DHT22;4589;48.690;8.952;2023-08-21T00:59:24;21.00;99.90
9107;DHT22;4589;48.690;8.952;2023-08-21T01:11:46;20.80;99.90
9107;DHT22;4589;48.690;8.952;2023-08-21T01:16:47;20.70;99.90
9107;DHT22;4589;48.690;8.952;2023-08-21T01:19:24;20.70;99.90
9107;DHT22;4589;48.690;8.952;2023-08-21T01:24:20;20.60;99.90
9107;DHT22;4589;48.690;8.952;2023-08-21T01:31:40;20.40;99.90
9107;DHT22;4589;48.690;8.952;2023-08-21T01:34:10;20.40;99.90
9107;DHT22;4589;48.690;8.952;2023-08-21T01:36:36;20.50;99.90
9107;DHT22;4589;48.690;8.952;2023-08-21T01:51:13;20.30;99.90
9107;DHT22;4589;48.690;8.952;2023-08-21T01:56:04;20.20;99.90
9107;DHT22;4589;48.690;8.952;2023-08-21T02:00:56;20.10;99.90
9107;DHT22;4589;48.690;8.952;2023-08-21T02:08:14;19.90;99.90
9107;DHT22;4589;48.690;8.952;2023-08-21T02:10:52;19.90;99.90
9107;DHT22;4589;48.690;8.952;2023-08-21T02:13:18;19.90;99.90
9107;DHT22;4589;48.690;8.952;2023-08-21T02:25:30;19.80;99.90
9107;DHT22;4589;48.690;8.952;2023-08-21T02:32:51;19.70;99.90
9107;DHT22;4589;48.690;8.952;2023-08-21T02:37:43;19.70;99.90
9107;DHT22;4589;48.690;8.952;2023-08-21T02:40:08;19.60;99.90
9107;DHT22;4589;48.690;8.952;2023-08-21T02:45:07;19.40;99.90
9107;DHT22;4589;48.690;8.952;2023-08-21T02:47:39;19.50;99.90
9107;DHT22;4589;48.690;8.952;2023-08-21T02:50:05;19.40;99.90
9107;DHT22;4589;48.690;8.952;2023-08-21T02:52:32;19.40;99.90
9107;DHT22;4589;48.690;8.952;2023-08-21T02:54:58;19.40;99.90
9107;DHT22;4589;48.690;8.952;2023-08-21T02:57:24;19.30;99.90
9107;DHT22;4589;48.690;8.952;2023-08-21T03:02:17;19.30;99.90
9107;DHT22;4589;48.690;8.952;2023-08-21T03:12:01;19.40;99.90
9107;DHT22;4589;48.690;8.952;2023-08-21T03:16:52;19.40;99.90
9107;DHT22;4589;48.690;8.952;2023-08-21T03:19:18;19.40;99.90
9107;DHT22;4589;48.690;8.952;2023-08-21T03:21:44;19.40;99.90
9107;DHT22;4589;48.690;8.952;2023-08-21T03:38:45;19.20;99.90
9107;DHT22;4589;48.690;8.952;2023-08-21T03:41:11;19.20;99.90
9107;DHT22;4589;48.690;8.952;2023-08-21T03:43:37;19.20;99.90
9107;DHT22;4589;48.690;8.952;2023-08-21T03:50:55;19.10;99.90
9107;DHT22;4589;48.690;8.952;2023-08-21T03:58:13;19.10;99.90
9107;DHT22;4589;48.690;8.952;2023-08-21T04:00:39;19.10;99.90
9107;DHT22;4589;48.690;8.952;2023-08-21T04:07:56;18.90;99.90
9107;DHT22;4589;48.690;8.952;2023-08-21T04:12:48;18.90;99.90
9107;DHT22;4589;48.690;8.952;2023-08-21T04:20:06;18.70;99.90
9107;DHT22;4589;48.690;8.952;2023-08-21T04:34:42;18.70;99.90
9107;DHT22;4589;48.690;8.952;2023-08-21T04:37:07;18.60;99.90
9107;DHT22;4589;48.690;8.952;2023-08-21T04:46:52;18.80;99.90
9107;DHT22;4589;48.690;8.952;2023-08-21T04:54:09;18.90;99.90
9107;DHT22;4589;48.690;8.952;2023-08-21T04:59:01;19.00;99.90
9107;DHT22;4589;48.690;8.952;2023-08-21T05:01:27;19.00;99.90
9107;DHT22;4589;48.690;8.952;2023-08-21T05:03:53;19.00;99.90
9107;DHT22;4589;48.690;8.952;2023-08-21T05:11:11;19.20;99.90
9107;DHT22;4589;48.690;8.952;2023-08-21T05:13:37;19.30;99.90
9107;DHT22;4589;48.690;8.952;2023-08-21T05:16:02;19.30;99.90
9107;DHT22;4589;48.690;8.952;2023-08-21T05:20:55;19.50;99.90
9107;DHT22;4589;48.690;8.952;2023-08-21T05:25:48;19.80;99.90
9107;DHT22;4589;48.690;8.952;2023-08-21T05:28:14;20.00;99.90
9107;DHT22;4589;48.690;8.952;2023-08-21T05:30:40;20.10;99.90
9107;DHT22;4589;48.690;8.952;2023-08-21T05:33:06;20.20;99.90
9107;DHT22;4589;48.690;8.952;2023-08-21T05:35:35;20.30;99.90
9107;DHT22;4589;48.690;8.952;2023-08-21T05:38:02;20.30;99.90
9107;DHT22;4589;48.690;8.952;2023-08-21T05:40:28;20.30;99.90
9107;DHT22;4589;48.690;8.952;2023-08-21T05:52:38;20.70;99.90
9107;DHT22;4589;48.690;8.952;2023-08-21T05:55:04;20.80;99.90
9107;DHT22;4589;48.690;8.952;2023-08-21T05:57:30;21.00;99.90
9107;DHT22;4589;48.690;8.952;2023-08-21T06:02:22;24.90;99.90
9107;DHT22;4589;48.690;8.952;2023-08-21T06:07:13;21.50;99.90
9107;DHT22;4589;48.690;8.952;2023-08-21T06:12:05;21.70;99.90
9107;DHT22;4589;48.690;8.952;2023-08-21T06:17:01;21.90;99.90
9107;DHT22;4589;48.690;8.952;2023-08-21T06:19:27;22.10;99.90
9107;DHT22;4589;48.690;8.952;2023-08-21T06:21:54;22.30;99.90
9107;DHT22;4589;48.690;8.952;2023-08-21T06:24:20;22.80;99.90
9107;DHT22;4589;48.690;8.952;2023-08-21T06:26:45;23.60;99.90
9107;DHT22;4589;48.690;8.952;2023-08-21T06:31:37;25.30;99.90
9107;DHT22;4589;48.690;8.952;2023-08-21T06:34:03;26.00;99.90
9107;DHT22;4589;48.690;8.952;2023-08-21T06:36:28;26.00;99.90
9107;DHT22;4589;48.690;8.952;2023-08-21T06:38:55;27.10;99.90
9107;DHT22;4589;48.690;8.952;2023-08-21T06:41:20;27.10;99.90
9107;DHT22;4589;48.690;8.952;2023-08-21T06:43:46;28.40;99.90
9107;DHT22;4589;48.690;8.952;2023-08-21T06:46:12;29.40;99.90
9107;DHT22;4589;48.690;8.952;2023-08-21T06:48:39;30.40;99.90
9107;DHT22;4589;48.690;8.952;2023-08-21T06:51:06;30.40;99.90
9107;DHT22;4589;48.690;8.952;2023-08-21T06:53:32;30.90;99.90
9107;DHT22;4589;48.690;8.952;2023-08-21T06:55:57;32.20;99.90
9107;DHT22;4589;48.690;8.952;2023-08-21T06:58:23;32.80;99.10
9107;DHT22;4589;48.690;8.952;2023-08-21T07:00:49;32.80;98.90
9107;DHT22;4589;48.690;8.952;2023-08-21T07:03:14;33.90;96.30
9107;DHT22;4589;48.690;8.952;2023-08-21T07:05:40;34.00;96.50
9107;DHT22;4589;48.690;8.952;2023-08-21T07:08:06;34.10;95.60
9107;DHT22;4589;48.690;8.952;2023-08-21T07:10:38;34.80;94.90
9107;DHT22;4589;48.690;8.952;2023-08-21T07:13:03;33.10;95.10
9107;DHT22;4589;48.690;8.952;2023-08-21T07:15:29;33.20;95.40
9107;DHT22;4589;48.690;8.952;2023-08-21T07:17:55;34.20;94.20
9107;DHT22;4589;48.690;8.952;2023-08-21T07:20:21;35.10;93.20
9107;DHT22;4589;48.690;8.952;2023-08-21T07:22:47;35.90;91.90
9107;DHT22;4589;48.690;8.952;2023-08-21T07:25:13;36.10;90.90
9107;DHT22;4589;48.690;8.952;2023-08-21T07:27:38;36.60;91.00
9107;DHT22;4589;48.690;8.952;2023-08-21T07:30:05;37.50;90.30
9107;DHT22;4589;48.690;8.952;2023-08-21T07:32:31;37.10;89.60
9107;DHT22;4589;48.690;8.952;2023-08-21T07:34:57;37.80;87.00
9107;DHT22;4589;48.690;8.952;2023-08-21T07:37:22;37.90;87.20
9107;DHT22;4589;48.690;8.952;2023-08-21T07:39:48;39.10;83.30
9107;DHT22;4589;48.690;8.952;2023-08-21T07:42:14;39.10;83.70
9107;DHT22;4589;48.690;8.952;2023-08-21T07:44:40;39.40;81.80
9107;DHT22;4589;48.690;8.952;2023-08-21T07:47:06;39.70;82.60
9107;DHT22;4589;48.690;8.952;2023-08-21T07:49:32;40.00;80.80
9107;DHT22;4589;48.690;8.952;2023-08-21T07:51:58;40.00;81.40
9107;DHT22;4589;48.690;8.952;2023-08-21T07:54:23;39.80;79.60
9107;DHT22;4589;48.690;8.952;2023-08-21T07:56:50;39.70;79.40
9107;DHT22;4589;48.690;8.952;2023-08-21T07:59:16;37.00;84.30
9107;DHT22;4589;48.690;8.952;2023-08-21T08:01:41;37.90;85.30
9107;DHT22;4589;48.690;8.952;2023-08-21T08:04:08;40.20;79.40
9107;DHT22;4589;48.690;8.952;2023-08-21T08:06:33;40.30;80.10
9107;DHT22;4589;48.690;8.952;2023-08-21T08:08:59;40.90;78.40
9107;DHT22;4589;48.690;8.952;2023-08-21T08:11:25;41.30;77.30
9107;DHT22;4589;48.690;8.952;2023-08-21T08:13:50;42.50;74.70
9107;DHT22;4589;48.690;8.952;2023-08-21T08:16:16;42.50;74.70
9107;DHT22;4589;48.690;8.952;2023-08-21T08:18:42;39.90;78.40
9107;DHT22;4589;48.690;8.952;2023-08-21T08:26:00;38.70;81.30
9107;DHT22;4589;48.690;8.952;2023-08-21T08:28:26;38.70;81.70
9107;DHT22;4589;48.690;8.952;2023-08-21T08:31:00;40.10;79.60
9107;DHT22;4589;48.690;8.952;2023-08-21T08:33:26;40.70;77.30
9107;DHT22;4589;48.690;8.952;2023-08-21T08:35:51;41.00;77.00
9107;DHT22;4589;48.690;8.952;2023-08-21T08:38:18;41.00;77.50
9107;DHT22;4589;48.690;8.952;2023-08-21T08:40:45;41.70;74.50
9107;DHT22;4589;48.690;8.952;2023-08-21T08:43:12;40.80;74.70
9107;DHT22;4589;48.690;8.952;2023-08-21T08:45:38;41.10;76.30
9107;DHT22;4589;48.690;8.952;2023-08-21T08:48:05;41.10;76.10
9107;DHT22;4589;48.690;8.952;2023-08-21T08:50:32;42.10;71.70
9107;DHT22;4589;48.690;8.952;2023-08-21T08:52:59;42.20;72.20
9107;DHT22;4589;48.690;8.952;2023-08-21T08:55:25;42.60;72.00
9107;DHT22;4589;48.690;8.952;2023-08-21T08:57:52;43.00;69.40
9107;DHT22;4589;48.690;8.952;2023-08-21T09:00:18;42.80;69.70
9107;DHT22;4589;48.690;8.952;2023-08-21T09:02:45;43.20;70.10
9107;DHT22;4589;48.690;8.952;2023-08-21T09:05:10;43.30;70.10
9107;DHT22;4589;48.690;8.952;2023-08-21T09:07:36;42.90;70.70
9107;DHT22;4589;48.690;8.952;2023-08-21T09:10:02;43.60;69.10
9107;DHT22;4589;48.690;8.952;2023-08-21T09:12:31;43.60;68.30
9107;DHT22;4589;48.690;8.952;2023-08-21T09:14:58;43.60;68.80
9107;DHT22;4589;48.690;8.952;2023-08-21T09:17:25;43.10;69.30
9107;DHT22;4589;48.690;8.952;2023-08-21T09:19:51;44.00;68.40
9107;DHT22;4589;48.690;8.952;2023-08-21T09:22:18;44.00;69.00
9107;DHT22;4589;48.690;8.952;2023-08-21T09:25:02;41.10;69.20
9107;DHT22;4589;48.690;8.952;2023-08-21T09:27:39;41.40;69.80
9107;DHT22;4589;48.690;8.952;2023-08-21T09:30:09;41.00;71.10
9107;DHT22;4589;48.690;8.952;2023-08-21T09:32:58;41.40;69.20
9107;DHT22;4589;48.690;8.952;2023-08-21T09:35:26;41.60;69.20
9107;DHT22;4589;48.690;8.952;2023-08-21T09:40:21;41.50;71.10
9107;DHT22;4589;48.690;8.952;2023-08-21T09:42:56;41.70;71.60
9107;DHT22;4589;48.690;8.952;2023-08-21T09:45:23;41.00;69.10
9107;DHT22;4589;48.690;8.952;2023-08-21T09:47:50;40.50;71.30
9107;DHT22;4589;48.690;8.952;2023-08-21T09:50:17;39.00;73.00
9107;DHT22;4589;48.690;8.952;2023-08-21T09:52:44;38.10;75.20
9107;DHT22;4589;48.690;8.952;2023-08-21T09:55:10;37.70;76.80
9107;DHT22;4589;48.690;8.952;2023-08-21T09:57:36;37.60;77.10
9107;DHT22;4589;48.690;8.952;2023-08-21T10:00:03;37.60;77.70
9107;DHT22;4589;48.690;8.952;2023-08-21T10:02:42;38.30;78.20
9107;DHT22;4589;48.690;8.952;2023-08-21T10:05:08;39.90;75.70
9107;DHT22;4589;48.690;8.952;2023-08-21T10:10:00;41.40;71.60
9107;DHT22;4589;48.690;8.952;2023-08-21T10:12:27;43.10;69.80
9107;DHT22;4589;48.690;8.952;2023-08-21T10:14:52;43.20;70.90
9107;DHT22;4589;48.690;8.952;2023-08-21T10:17:18;43.60;66.70
9107;DHT22;4589;48.690;8.952;2023-08-21T10:19:51;43.50;67.40
9107;DHT22;4589;48.690;8.952;2023-08-21T10:22:42;44.00;67.90
9107;DHT22;4589;48.690;8.952;2023-08-21T10:25:15;41.90;66.40
9107;DHT22;4589;48.690;8.952;2023-08-21T10:27:42;40.50;70.20
9107;DHT22;4589;48.690;8.952;2023-08-21T10:30:15;40.50;73.50
9107;DHT22;4589;48.690;8.952;2023-08-21T10:32:47;41.80;70.50
9107;DHT22;4589;48.690;8.952;2023-08-21T10:35:19;42.00;71.50
9107;DHT22;4589;48.690;8.952;2023-08-21T10:38:16;43.60;65.80
9107;DHT22;4589;48.690;8.952;2023-08-21T10:41:08;44.10;65.70
9107;DHT22;4589;48.690;8.952;2023-08-21T10:43:51;44.30;65.20
9107;DHT22;4589;48.690;8.952;2023-08-21T10:46:17;44.10;64.60
9107;DHT22;4589;48.690;8.952;2023-08-21T10:48:42;43.80;65.10
9107;DHT22;4589;48.690;8.952;2023-08-21T10:51:09;43.70;67.50
9107;DHT22;4589;48.690;8.952;2023-08-21T10:53:35;44.10;63.90
9107;DHT22;4589;48.690;8.952;2023-08-21T10:56:02;43.20;65.30
9107;DHT22;4589;48.690;8.952;2023-08-21T10:58:28;43.10;66.50
9107;DHT22;4589;48.690;8.952;2023-08-21T11:01:00;44.20;64.60
9107;DHT22;4589;48.690;8.952;2023-08-21T11:03:26;44.40;64.70
9107;DHT22;4589;48.690;8.952;2023-08-21T11:06:05;44.00;64.50
9107;DHT22;4589;48.690;8.952;2023-08-21T11:08:32;44.30;65.70
9107;DHT22;4589;48.690;8.952;2023-08-21T11:10:59;44.40;64.00
9107;DHT22;4589;48.690;8.952;2023-08-21T11:13:25;44.80;62.20
9107;DHT22;4589;48.690;8.952;2023-08-21T11:16:04;44.20;62.60
9107;DHT22;4589;48.690;8.952;2023-08-21T11:18:35;43.70;65.30
9107;DHT22;4589;48.690;8.952;2023-08-21T11:21:06;44.30;64.30
9107;DHT22;4589;48.690;8.952;2023-08-21T11:23:33;44.90;63.60
9107;DHT22;4589;48.690;8.952;2023-08-21T11:25:59;44.70;62.30
9107;DHT22;4589;48.690;8.952;2023-08-21T11:28:24;44.70;63.70
9107;DHT22;4589;48.690;8.952;2023-08-21T11:30:50;45.60;63.20
9107;DHT22;4589;48.690;8.952;2023-08-21T11:33:16;43.60;61.50
9107;DHT22;4589;48.690;8.952;2023-08-21T11:35:41;42.20;63.30
9107;DHT22;4589;48.690;8.952;2023-08-21T11:38:16;40.40;66.60
9107;DHT22;4589;48.690;8.952;2023-08-21T11:40:42;39.30;70.20
9107;DHT22;4589;48.690;8.952;2023-08-21T11:43:07;38.50;71.50
9107;DHT22;4589;48.690;8.952;2023-08-21T11:45:34;38.00;72.90
9107;DHT22;4589;48.690;8.952;2023-08-21T11:48:00;37.20;74.40
9107;DHT22;4589;48.690;8.952;2023-08-21T11:50:26;37.10;76.70
9107;DHT22;4589;48.690;8.952;2023-08-21T11:52:52;37.10;76.90
9107;DHT22;4589;48.690;8.952;2023-08-21T11:55:18;36.70;76.10
9107;DHT22;4589;48.690;8.952;2023-08-21T11:57:49;36.60;77.30
9107;DHT22;4589;48.690;8.952;2023-08-21T12:00:15;36.30;78.50
9107;DHT22;4589;48.690;8.952;2023-08-21T12:03:00;36.10;78.40
9107;DHT22;4589;48.690;8.952;2023-08-21T12:05:27;35.50;79.40
9107;DHT22;4589;48.690;8.952;2023-08-21T12:07:53;35.50;79.90
9107;DHT22;4589;48.690;8.952;2023-08-21T12:10:26;36.60;78.90
9107;DHT22;4589;48.690;8.952;2023-08-21T12:15:19;37.60;74.30
9107;DHT22;4589;48.690;8.952;2023-08-21T12:22:38;36.20;78.70
9107;DHT22;4589;48.690;8.952;2023-08-21T12:25:04;36.40;78.30
9107;DHT22;4589;48.690;8.952;2023-08-21T12:27:30;35.80;79.60
9107;DHT22;4589;48.690;8.952;2023-08-21T12:29:56;36.10;78.60
9107;DHT22;4589;48.690;8.952;2023-08-21T12:32:22;37.20;79.40
9107;DHT22;4589;48.690;8.952;2023-08-21T12:34:47;37.90;75.00
9107;DHT22;4589;48.690;8.952;2023-08-21T12:37:13;37.90;73.60
9107;DHT22;4589;48.690;8.952;2023-08-21T12:39:39;37.90;74.80
9107;DHT22;4589;48.690;8.952;2023-08-21T12:42:04;38.50;73.70
9107;DHT22;4589;48.690;8.952;2023-08-21T12:49:22;39.10;70.30
9107;DHT22;4589;48.690;8.952;2023-08-21T12:51:47;39.90;70.60
9107;DHT22;4589;48.690;8.952;2023-08-21T12:54:13;40.20;69.20
9107;DHT22;4589;48.690;8.952;2023-08-21T12:56:39;40.50;67.80
9107;DHT22;4589;48.690;8.952;2023-08-21T12:59:05;40.40;69.40
9107;DHT22;4589;48.690;8.952;2023-08-21T13:01:30;40.70;69.00
9107;DHT22;4589;48.690;8.952;2023-08-21T13:03:58;41.20;69.00
9107;DHT22;4589;48.690;8.952;2023-08-21T13:06:24;39.70;70.80
9107;DHT22;4589;48.690;8.952;2023-08-21T13:08:49;39.70;71.50
9107;DHT22;4589;48.690;8.952;2023-08-21T13:11:15;40.00;70.00
9107;DHT22;4589;48.690;8.952;2023-08-21T13:13:41;39.40;71.50
9107;DHT22;4589;48.690;8.952;2023-08-21T13:16:06;39.00;71.50
9107;DHT22;4589;48.690;8.952;2023-08-21T13:18:32;38.10;73.00
9107;DHT22;4589;48.690;8.952;2023-08-21T13:23:23;36.80;77.00
9107;DHT22;4589;48.690;8.952;2023-08-21T13:25:49;36.70;76.90
9107;DHT22;4589;48.690;8.952;2023-08-21T13:28:15;36.60;77.20
9107;DHT22;4589;48.690;8.952;2023-08-21T13:30:40;36.10;78.80
9107;DHT22;4589;48.690;8.952;2023-08-21T13:33:07;36.10;79.30
9107;DHT22;4589;48.690;8.952;2023-08-21T13:40:25;35.60;79.80
9107;DHT22;4589;48.690;8.952;2023-08-21T13:42:51;35.30;80.40
9107;DHT22;4589;48.690;8.952;2023-08-21T13:45:17;34.90;81.00
9107;DHT22;4589;48.690;8.952;2023-08-21T13:47:47;35.10;81.10
9107;DHT22;4589;48.690;8.952;2023-08-21T13:52:40;34.60;82.80
9107;DHT22;4589;48.690;8.952;2023-08-21T13:55:07;34.60;83.50
9107;DHT22;4589;48.690;8.952;2023-08-21T13:57:33;34.40;83.90
9107;DHT22;4589;48.690;8.952;2023-08-21T13:59:59;34.20;83.80
9107;DHT22;4589;48.690;8.952;2023-08-21T14:02:25;34.30;84.00
9107;DHT22;4589;48.690;8.952;2023-08-21T14:04:51;34.20;83.90
9107;DHT22;4589;48.690;8.952;2023-08-21T14:07:16;33.80;84.40
9107;DHT22;4589;48.690;8.952;2023-08-21T14:09:42;34.00;84.20
9107;DHT22;4589;48.690;8.952;2023-08-21T14:14:35;34.40;83.00
9107;DHT22;4589;48.690;8.952;2023-08-21T14:19:27;34.50;83.40
9107;DHT22;4589;48.690;8.952;2023-08-21T14:21:53;34.60;82.80
9107;DHT22;4589;48.690;8.952;2023-08-21T14:24:19;34.40;83.60
9107;DHT22;4589;48.690;8.952;2023-08-21T14:26:44;34.40;82.80
9107;DHT22;4589;48.690;8.952;2023-08-21T14:29:10;34.30;84.40
9107;DHT22;4589;48.690;8.952;2023-08-21T14:31:35;34.20;83.20
9107;DHT22;4589;48.690;8.952;2023-08-21T14:43:45;33.80;85.10
9107;DHT22;4589;48.690;8.952;2023-08-21T14:48:37;33.70;84.50
9107;DHT22;4589;48.690;8.952;2023-08-21T14:51:04;33.40;85.40
9107;DHT22;4589;48.690;8.952;2023-08-21T14:53:29;33.20;86.20
9107;DHT22;4589;48.690;8.952;2023-08-21T14:55:55;33.20;87.10
9107;DHT22;4589;48.690;8.952;2023-08-21T14:58:20;33.30;86.40
9107;DHT22;4589;48.690;8.952;2023-08-21T15:08:04;33.30;86.50
9107;DHT22;4589;48.690;8.952;2023-08-21T15:10:29;33.10;86.70
9107;DHT22;4589;48.690;8.952;2023-08-21T15:15:22;33.20;87.20
9107;DHT22;4589;48.690;8.952;2023-08-21T15:17:48;33.20;86.90
9107;DHT22;4589;48.690;8.952;2023-08-21T15:20:13;33.20;87.80
9107;DHT22;4589;48.690;8.952;2023-08-21T15:25:08;33.10;88.50
9107;DHT22;4589;48.690;8.952;2023-08-21T15:30:00;33.00;89.10
9107;DHT22;4589;48.690;8.952;2023-08-21T15:32:26;32.80;87.30
9107;DHT22;4589;48.690;8.952;2023-08-21T15:34:51;32.70;88.80
9107;DHT22;4589;48.690;8.952;2023-08-21T15:37:17;32.70;89.00
9107;DHT22;4589;48.690;8.952;2023-08-21T15:39:42;32.80;87.90
9107;DHT22;4589;48.690;8.952;2023-08-21T15:47:00;32.60;88.60
9107;DHT22;4589;48.690;8.952;2023-08-21T15:49:25;32.50;89.50
9107;DHT22;4589;48.690;8.952;2023-08-21T15:51:51;32.50;90.40
9107;DHT22;4589;48.690;8.952;2023-08-21T15:54:19;32.60;89.80
9107;DHT22;4589;48.690;8.952;2023-08-21T16:01:37;32.20;90.10
9107;DHT22;4589;48.690;8.952;2023-08-21T16:04:03;31.90;90.10
9107;DHT22;4589;48.690;8.952;2023-08-21T16:13:47;31.40;91.50
9107;DHT22;4589;48.690;8.952;2023-08-21T16:18:38;31.10;92.00
9107;DHT22;4589;48.690;8.952;2023-08-21T16:21:04;31.10;92.00
9107;DHT22;4589;48.690;8.952;2023-08-21T16:23:30;31.20;92.10
9107;DHT22;4589;48.690;8.952;2023-08-21T16:25:55;31.20;92.10
9107;DHT22;4589;48.690;8.952;2023-08-21T16:30:47;31.20;92.00
9107;DHT22;4589;48.690;8.952;2023-08-21T16:40:30;30.80;92.00
9107;DHT22;4589;48.690;8.952;2023-08-21T16:47:48;30.70;92.30
9107;DHT22;4589;48.690;8.952;2023-08-21T16:52:40;30.70;92.60
9107;DHT22;4589;48.690;8.952;2023-08-21T16:55:06;30.70;92.60
9107;DHT22;4589;48.690;8.952;2023-08-21T16:57:32;30.60;92.70
9107;DHT22;4589;48.690;8.952;2023-08-21T17:04:49;30.40;92.80
9107;DHT22;4589;48.690;8.952;2023-08-21T17:07:15;30.40;93.00
9107;DHT22;4589;48.690;8.952;2023-08-21T17:09:44;30.40;93.30
9107;DHT22;4589;48.690;8.952;2023-08-21T17:12:10;30.40;93.10
9107;DHT22;4589;48.690;8.952;2023-08-21T17:21:54;30.00;93.40
9107;DHT22;4589;48.690;8.952;2023-08-21T17:26:46;29.90;93.80
9107;DHT22;4589;48.690;8.952;2023-08-21T17:29:11;29.80;93.80
9107;DHT22;4589;48.690;8.952;2023-08-21T17:34:03;29.60;94.10
9107;DHT22;4589;48.690;8.952;2023-08-21T17:36:29;29.60;94.20
9107;DHT22;4589;48.690;8.952;2023-08-21T17:43:46;29.40;94.90
9107;DHT22;4589;48.690;8.952;2023-08-21T17:46:12;29.30;95.00
9107;DHT22;4589;48.690;8.952;2023-08-21T17:48:37;29.20;95.30
9107;DHT22;4589;48.690;8.952;2023-08-21T17:51:03;29.10;95.20
9107;DHT22;4589;48.690;8.952;2023-08-21T17:53:30;29.00;95.40
9107;DHT22;4589;48.690;8.952;2023-08-21T17:55:57;29.00;95.50
9107;DHT22;4589;48.690;8.952;2023-08-21T17:58:24;28.90;95.60
9107;DHT22;4589;48.690;8.952;2023-08-21T18:03:16;28.70;95.70
9107;DHT22;4589;48.690;8.952;2023-08-21T18:10:34;28.50;96.10
9107;DHT22;4589;48.690;8.952;2023-08-21T18:12:59;28.40;96.20
9107;DHT22;4589;48.690;8.952;2023-08-21T18:15:25;28.30;96.30
9107;DHT22;4589;48.690;8.952;2023-08-21T18:17:51;28.20;96.40
9107;DHT22;4589;48.690;8.952;2023-08-21T18:20:17;28.10;96.70
9107;DHT22;4589;48.690;8.952;2023-08-21T18:25:08;27.90;96.80
9107;DHT22;4589;48.690;8.952;2023-08-21T18:27:34;27.80;97.10
9107;DHT22;4589;48.690;8.952;2023-08-21T18:29:59;27.80;97.20
9107;DHT22;4589;48.690;8.952;2023-08-21T18:32:27;27.70;97.50
9107;DHT22;4589;48.690;8.952;2023-08-21T18:34:52;27.50;97.70
9107;DHT22;4589;48.690;8.952;2023-08-21T18:37:18;27.40;97.90
9107;DHT22;4589;48.690;8.952;2023-08-21T18:39:44;27.30;98.00
9107;DHT22;4589;48.690;8.952;2023-08-21T18:44:35;27.20;98.40
9107;DHT22;4589;48.690;8.952;2023-08-21T18:47:01;27.20;98.40
9107;DHT22;4589;48.690;8.952;2023-08-21T18:49:27;27.10;98.70
9107;DHT22;4589;48.690;8.952;2023-08-21T18:51:52;27.00;98.80
9107;DHT22;4589;48.690;8.952;2023-08-21T18:54:18;26.90;99.00
9107;DHT22;4589;48.690;8.952;2023-08-21T19:01:40;26.60;99.60
9107;DHT22;4589;48.690;8.952;2023-08-21T19:04:05;26.60;99.90
9107;DHT22;4589;48.690;8.952;2023-08-21T19:06:31;26.50;99.90
9107;DHT22;4589;48.690;8.952;2023-08-21T19:16:16;26.20;99.90
9107;DHT22;4589;48.690;8.952;2023-08-21T19:21:07;26.00;99.90
9107;DHT22;4589;48.690;8.952;2023-08-21T19:23:34;25.90;99.90
9107;DHT22;4589;48.690;8.952;2023-08-21T19:30:51;25.70;99.90
9107;DHT22;4589;48.690;8.952;2023-08-21T19:33:17;25.60;99.90
9107;DHT22;4589;48.690;8.952;2023-08-21T19:35:46;25.60;99.90
9107;DHT22;4589;48.690;8.952;2023-08-21T19:38:14;25.50;99.90
9107;DHT22;4589;48.690;8.952;2023-08-21T19:43:08;25.40;99.90
9107;DHT22;4589;48.690;8.952;2023-08-21T19:45:34;25.30;99.90
9107;DHT22;4589;48.690;8.952;2023-08-21T20:00:12;25.00;99.90
9107;DHT22;4589;48.690;8.952;2023-08-21T20:02:39;25.00;99.90
9107;DHT22;4589;48.690;8.952;2023-08-21T20:09:57;24.80;99.90
9107;DHT22;4589;48.690;8.952;2023-08-21T20:12:23;24.80;99.90
9107;DHT22;4589;48.690;8.952;2023-08-21T20:17:14;24.50;99.90
9107;DHT22;4589;48.690;8.952;2023-08-21T20:22:07;24.30;99.90
9107;DHT22;4589;48.690;8.952;2023-08-21T20:24:33;24.20;99.90
9107;DHT22;4589;48.690;8.952;2023-08-21T20:36:42;24.10;99.90
9107;DHT22;4589;48.690;8.952;2023-08-21T20:39:08;24.00;99.90
9107;DHT22;4589;48.690;8.952;2023-08-21T20:41:33;23.90;99.90
9107;DHT22;4589;48.690;8.952;2023-08-21T20:43:59;23.80;99.90
9107;DHT22;4589;48.690;8.952;2023-08-21T20:48:50;23.70;99.90
9107;DHT22;4589;48.690;8.952;2023-08-21T20:53:42;23.60;99.90
9107;DHT22;4589;48.690;8.952;2023-08-21T20:58:35;23.50;99.90
9107;DHT22;4589;48.690;8.952;2023-08-21T21:03:28;23.50;99.90
9107;DHT22;4589;48.690;8.952;2023-08-21T21:05:56;23.50;99.90
9107;DHT22;4589;48.690;8.952;2023-08-21T21:18:06;23.30;99.90
9107;DHT22;4589;48.690;8.952;2023-08-21T21:20:31;23.30;99.90
9107;DHT22;4589;48.690;8.952;2023-08-21T21:22:57;23.20;99.90
9107;DHT22;4589;48.690;8.952;2023-08-21T21:30:14;22.80;99.90
9107;DHT22;4589;48.690;8.952;2023-08-21T21:32:40;22.80;99.90
9107;DHT22;4589;48.690;8.952;2023-08-21T21:35:06;22.70;99.90
9107;DHT22;4589;48.690;8.952;2023-08-21T21:37:32;22.70;99.90
9107;DHT22;4589;48.690;8.952;2023-08-21T21:39:58;22.60;99.90
9107;DHT22;4589;48.690;8.952;2023-08-21T21:47:19;22.60;99.90
9107;DHT22;4589;48.690;8.952;2023-08-21T21:49:44;22.50;99.90
9107;DHT22;4589;48.690;8.952;2023-08-21T21:57:01;22.20;99.90
9107;DHT22;4589;48.690;8.952;2023-08-21T22:06:46;22.30;99.90
9107;DHT22;4589;48.690;8.952;2023-08-21T22:09:11;22.30;99.90
9107;DHT22;4589;48.690;8.952;2023-08-21T22:11:37;22.20;99.90
9107;DHT22;4589;48.690;8.952;2023-08-21T22:14:02;22.20;99.90
9107;DHT22;4589;48.690;8.952;2023-08-21T22:16:28;22.10;99.90
9107;DHT22;4589;48.690;8.952;2023-08-21T22:18:54;22.00;99.90
9107;DHT22;4589;48.690;8.952;2023-08-21T22:21:20;21.90;99.90
9107;DHT22;4589;48.690;8.952;2023-08-21T22:26:11;21.80;99.90
9107;DHT22;4589;48.690;8.952;2023-08-21T22:31:03;21.70;99.90
9107;DHT22;4589;48.690;8.952;2023-08-21T22:33:29;21.70;99.90
9107;DHT22;4589;48.690;8.952;2023-08-21T22:35:55;21.70;99.90
9107;DHT22;4589;48.690;8.952;2023-08-21T22:38:21;21.60;99.90
9107;DHT22;4589;48.690;8.952;2023-08-21T22:40:46;21.60;99.90
9107;DHT22;4589;48.690;8.952;2023-08-21T22:45:39;21.50;99.90
9107;DHT22;4589;48.690;8.952;2023-08-21T22:48:05;21.50;99.90
9107;DHT22;4589;48.690;8.952;2023-08-21T22:50:30;21.40;99.90
9107;DHT22;4589;48.690;8.952;2023-08-21T22:55:23;21.40;99.90
9107;DHT22;4589;48.690;8.952;2023-08-21T23:07:33;21.20;99.90
9107;DHT22;4589;48.690;8.952;2023-08-21T23:14:51;21.30;99.90
9107;DHT22;4589;48.690;8.952;2023-08-21T23:19:43;21.20;99.90
9107;DHT22;4589;48.690;8.952;2023-08-21T23:22:08;21.20;99.90
9107;DHT22;4589;48.690;8.952;2023-08-21T23:31:54;21.10;99.90
9107;DHT22;4589;48.690;8.952;2023-08-21T23:34:19;21.00;99.90
9107;DHT22;4589;48.690;8.952;2023-08-21T23:36:45;20.90;99.90
9107;DHT22;4589;48.690;8.952;2023-08-21T23:39:10;20.80;99.90
9107;DHT22;4589;48.690;8.952;2023-08-21T23:44:02;20.70;99.90
9107;DHT22;4589;48.690;8.952;2023-08-21T23:46:30;20.80;99.90
9107;DHT22;4589;48.690;8.952;2023-08-21T23:48:55;20.80;99.90
